Airfield :







YOU CAN JOIN US ON...

 
LOGIN :

Register | Disclaimer

   EN    FR    IT 

 









Legend :    VFR   Marginal VFR   IFR   Intensive IFR   Very Intensive IFR
Visi :
Ceiling :
>= 8 km
>= 3000ft
5 to 8 km
1000 to 3000 ft
1500m to 5 km
500 to 1000 ft
800 to 1500m
200 to 500 ft
< 800m
< 200 ft
Symbols :   Thunderstorms  Fog  Heavy snow  Heavy precipitations  Wind > 20 kt






- Airport Elevation : 1166 ft


KMPV - Edward F Knapp State

CURRENT METAR :
  • 222151Z AUTO 33004KT 10SM FEW020 BKN041 OVC050 15/09 A2983 RMK AO2 SLP100 T01500094

EXPIRED METARs :
  • 222051Z AUTO 32007KT 10SM OVC055 16/10 A2982 RMK AO2 SLP097 T01560100 53005
  • 221951Z AUTO 31006KT 10SM SCT043 OVC060 17/10 A2980 RMK AO2 SLP088 T01720100

TAF KMPV
Valid from the 22 at 18:00 until the 23 at 18:00 UTC


221743Z 2218/2318 32008KT P6SM VCSH OVC040
FM230200 32006KT P6SM OVC100
FM231400 31007KT P6SM SCT100
KZBW FIR / North America



MET'MAP, your aeronautical weather chart ! - Copyright ORBIFLY December 2007 - Disclaimer

ORBIFLY MET'MAP TEAM :

Programming & Development : Alexandra Zaïnal
Concept & original design : Baudouin d'Aumeries
Assistance for programming : Marc-Olivier Méhu
Technical & hardware support : Manuel Goepfert

Contact : metmap@orbifly.com




SOURCES & CREDITS :

   NOAA